createdAt,value
2023-01-19T00:00:30.275Z,1.30
2023-01-19T00:02:57.919Z,1.10
2023-01-19T00:05:25.379Z,1.10
2023-01-19T00:07:52.856Z,1.20
2023-01-19T00:10:20.527Z,1.20
2023-01-19T00:12:47.646Z,1.30
2023-01-19T00:15:15.311Z,1.30
2023-01-19T00:17:42.801Z,1.30
2023-01-19T00:20:11.175Z,1.40
2023-01-19T00:22:38.300Z,1.40
2023-01-19T00:25:05.841Z,1.40
2023-01-19T00:27:35.122Z,1.30
2023-01-19T00:30:02.852Z,1.30
2023-01-19T00:32:30.174Z,1.10
2023-01-19T00:34:57.683Z,1.20
2023-01-19T00:37:25.323Z,1.20
2023-01-19T00:39:52.701Z,1.10
2023-01-19T00:42:38.466Z,1.30
2023-01-19T00:45:07.062Z,1.30
2023-01-19T00:47:34.946Z,1.30
2023-01-19T00:50:02.465Z,1.40
2023-01-19T00:52:29.935Z,1.40
2023-01-19T00:54:57.339Z,1.40
2023-01-19T00:57:24.477Z,1.30
2023-01-19T00:59:51.655Z,1.40
2023-01-19T01:02:18.905Z,1.40
2023-01-19T01:04:46.716Z,1.40
2023-01-19T01:07:14.579Z,1.50
2023-01-19T01:09:41.714Z,1.50
2023-01-19T01:12:09.273Z,1.40
2023-01-19T01:14:37.016Z,1.30
2023-01-19T01:17:04.543Z,1.50
2023-01-19T01:19:31.691Z,1.50
2023-01-19T01:21:58.953Z,1.30
2023-01-19T01:24:26.199Z,1.40
2023-01-19T01:26:53.587Z,1.40
2023-01-19T01:29:21.282Z,1.50
2023-01-19T01:31:48.504Z,1.20
2023-01-19T01:34:16.879Z,1.30
2023-01-19T01:36:44.431Z,1.40
2023-01-19T01:39:11.832Z,1.30
2023-01-19T01:41:39.206Z,1.30
2023-01-19T01:44:50.098Z,1.10
2023-01-19T01:47:40.386Z,1.20
2023-01-19T01:50:15.754Z,1.40
2023-01-19T01:53:06.319Z,1.10
2023-01-19T01:55:46.577Z,1.20
2023-01-19T01:58:13.789Z,1.10
2023-01-19T02:00:59.884Z,1.20
2023-01-19T02:03:27.543Z,1.10
2023-01-19T02:05:57.694Z,1.10
2023-01-19T02:09:09.641Z,1.20
2023-01-19T02:11:55.479Z,1.30
2023-01-19T02:14:22.734Z,1.30
2023-01-19T02:16:50.244Z,1.30
2023-01-19T02:19:21.023Z,1.50
2023-01-19T02:21:59.862Z,1.20
2023-01-19T02:24:28.399Z,1.30
2023-01-19T02:26:55.621Z,1.30
2023-01-19T02:29:24.302Z,1.30
2023-01-19T02:31:51.552Z,1.30
2023-01-19T02:34:20.870Z,1.40
2023-01-19T02:37:03.858Z,1.40
2023-01-19T02:39:39.107Z,1.50
2023-01-19T02:42:12.041Z,1.40
2023-01-19T02:44:39.845Z,1.40
2023-01-19T02:47:07.004Z,1.40
2023-01-19T02:49:34.470Z,1.30
2023-01-19T02:52:01.869Z,1.30
2023-01-19T02:54:42.135Z,1.30
2023-01-19T02:57:35.022Z,1.30
2023-01-19T03:00:21.119Z,1.40
2023-01-19T03:03:00.809Z,1.40
2023-01-19T03:05:55.261Z,1.40
2023-01-19T03:08:45.594Z,1.30
2023-01-19T03:11:13.564Z,1.40
2023-01-19T03:14:01.842Z,1.40
2023-01-19T03:16:55.590Z,1.40
2023-01-19T03:19:48.917Z,1.40
2023-01-19T03:22:24.242Z,1.40
2023-01-19T03:24:51.533Z,1.30
2023-01-19T03:27:23.298Z,1.20
2023-01-19T03:29:53.464Z,1.30
2023-01-19T03:32:21.968Z,1.30
2023-01-19T03:34:49.178Z,1.30
2023-01-19T03:37:16.893Z,1.30
2023-01-19T03:39:44.078Z,1.40
2023-01-19T03:42:13.905Z,1.40
2023-01-19T03:44:41.723Z,1.30
2023-01-19T03:47:10.345Z,1.30
2023-01-19T03:49:37.954Z,1.20
2023-01-19T03:52:05.703Z,1.20
2023-01-19T03:54:33.229Z,1.20
2023-01-19T03:57:00.821Z,1.20
2023-01-19T03:59:28.368Z,1.10
2023-01-19T04:01:55.867Z,1.20
2023-01-19T04:04:23.174Z,1.20
2023-01-19T04:06:50.458Z,1.20
2023-01-19T04:09:19.342Z,1.10
2023-01-19T04:11:47.621Z,1.20
2023-01-19T04:14:14.983Z,1.10
2023-01-19T04:16:42.389Z,1.10
2023-01-19T04:19:09.799Z,1.10
2023-01-19T04:21:37.342Z,1.00
2023-01-19T04:24:04.550Z,1.00
2023-01-19T04:26:31.676Z,1.00
2023-01-19T04:28:59.232Z,1.00
2023-01-19T04:31:26.505Z,0.90
2023-01-19T04:33:53.969Z,1.00
2023-01-19T04:36:21.172Z,1.00
2023-01-19T04:38:48.793Z,1.00
2023-01-19T04:41:16.346Z,1.00
2023-01-19T04:43:43.776Z,1.10
2023-01-19T04:46:11.145Z,1.00
2023-01-19T04:48:39.649Z,1.10
2023-01-19T04:51:09.413Z,1.00
2023-01-19T04:53:36.790Z,1.00
2023-01-19T04:56:04.261Z,1.00
2023-01-19T04:58:31.564Z,1.00
2023-01-19T05:00:59.085Z,1.00
2023-01-19T05:03:27.164Z,1.10
2023-01-19T05:05:54.671Z,1.10
2023-01-19T05:08:22.345Z,1.10
2023-01-19T05:10:49.667Z,1.20
2023-01-19T05:13:17.086Z,1.10
2023-01-19T05:15:44.576Z,1.10
2023-01-19T05:18:12.043Z,1.20
2023-01-19T05:20:40.309Z,1.20
2023-01-19T05:23:07.697Z,1.10
2023-01-19T05:25:35.064Z,1.10
2023-01-19T05:28:03.313Z,1.10
2023-01-19T05:30:30.723Z,0.90
2023-01-19T05:32:58.765Z,1.00
2023-01-19T05:35:35.554Z,1.00
2023-01-19T05:38:03.950Z,0.90
2023-01-19T05:40:31.655Z,1.00
2023-01-19T05:43:02.198Z,1.00
2023-01-19T05:45:29.812Z,1.10
2023-01-19T05:47:57.438Z,1.10
2023-01-19T05:50:25.783Z,1.10
2023-01-19T05:52:55.999Z,0.90
2023-01-19T05:55:23.445Z,1.00
2023-01-19T05:57:50.777Z,1.00
2023-01-19T06:00:18.511Z,1.00
2023-01-19T06:02:48.268Z,1.10
2023-01-19T06:05:16.757Z,1.00
2023-01-19T06:07:44.232Z,1.00
2023-01-19T06:10:12.026Z,1.10
2023-01-19T06:12:42.505Z,1.00
2023-01-19T06:15:10.045Z,1.20
2023-01-19T06:17:37.545Z,1.10
2023-01-19T06:20:05.845Z,1.10
2023-01-19T06:22:33.391Z,1.00
2023-01-19T06:25:00.913Z,1.10
2023-01-19T06:27:28.343Z,1.10
2023-01-19T06:29:55.828Z,1.20
2023-01-19T06:32:23.306Z,1.10
2023-01-19T06:34:52.716Z,0.90
2023-01-19T06:37:21.276Z,1.00
2023-01-19T06:39:48.715Z,1.10
2023-01-19T06:42:16.044Z,1.20
2023-01-19T06:44:47.731Z,1.20
2023-01-19T06:47:16.326Z,1.10
2023-01-19T06:49:44.329Z,1.00
2023-01-19T06:52:16.310Z,1.00
2023-01-19T06:54:45.572Z,1.20
2023-01-19T06:57:14.058Z,1.10
2023-01-19T06:59:41.716Z,1.10
2023-01-19T07:02:27.864Z,1.20
2023-01-19T07:04:57.037Z,1.20
2023-01-19T07:07:24.508Z,1.10
2023-01-19T07:09:53.931Z,1.10
2023-01-19T07:12:22.857Z,1.00
2023-01-19T07:14:50.483Z,0.90
2023-01-19T07:17:17.773Z,1.00
2023-01-19T07:19:46.856Z,1.00
2023-01-19T07:22:14.865Z,1.00
2023-01-19T07:24:42.315Z,1.00
2023-01-19T07:27:11.855Z,0.90
2023-01-19T07:29:39.477Z,1.00
2023-01-19T07:32:07.866Z,1.10
2023-01-19T07:34:36.496Z,1.10
2023-01-19T07:37:04.735Z,0.90
2023-01-19T07:39:32.654Z,0.90
2023-01-19T07:42:00.366Z,0.90
2023-01-19T07:44:27.932Z,0.90
2023-01-19T07:46:55.320Z,1.00
2023-01-19T07:49:22.716Z,0.90
2023-01-19T07:51:50.216Z,0.80
2023-01-19T07:54:17.686Z,1.00
2023-01-19T07:56:45.162Z,1.10
2023-01-19T07:59:12.783Z,1.20
2023-01-19T08:01:40.928Z,1.30
2023-01-19T08:04:08.555Z,1.30
2023-01-19T08:06:37.413Z,1.30
2023-01-19T08:09:09.100Z,1.30
2023-01-19T08:11:36.992Z,1.20
2023-01-19T08:14:06.885Z,1.30
2023-01-19T08:16:35.794Z,1.40
2023-01-19T08:19:04.115Z,1.30
2023-01-19T08:21:33.531Z,1.30
2023-01-19T08:24:00.821Z,1.30
2023-01-19T08:26:33.324Z,1.20
2023-01-19T08:29:02.674Z,1.40
2023-01-19T08:31:30.447Z,1.40
2023-01-19T08:33:58.078Z,1.50
2023-01-19T08:36:25.498Z,1.30
2023-01-19T08:38:53.664Z,1.30
2023-01-19T08:41:21.446Z,1.20
2023-01-19T08:43:49.802Z,1.20
2023-01-19T08:46:17.868Z,1.30
2023-01-19T08:48:51.174Z,1.30
2023-01-19T08:51:18.734Z,1.50
2023-01-19T08:53:46.203Z,1.50
2023-01-19T08:56:14.134Z,1.60
2023-01-19T08:58:43.099Z,1.50
2023-01-19T09:01:11.187Z,1.40
2023-01-19T09:03:38.692Z,1.40
2023-01-19T09:06:07.440Z,1.30
2023-01-19T09:08:35.254Z,1.30
2023-01-19T09:11:02.580Z,1.40
2023-01-19T09:13:29.900Z,1.40
2023-01-19T09:15:57.540Z,1.40
2023-01-19T09:18:25.061Z,1.40
2023-01-19T09:20:52.212Z,1.40
2023-01-19T09:23:20.676Z,1.50
2023-01-19T09:25:48.533Z,1.60
2023-01-19T09:28:17.930Z,1.60
2023-01-19T09:30:45.622Z,1.50
2023-01-19T09:33:15.029Z,1.50
2023-01-19T09:35:42.701Z,1.50
2023-01-19T09:38:10.868Z,1.50
2023-01-19T09:40:42.827Z,1.30
2023-01-19T09:43:40.127Z,1.20
2023-01-19T09:46:22.357Z,1.30
2023-01-19T09:48:54.601Z,1.20
2023-01-19T09:51:28.129Z,1.40
2023-01-19T09:54:00.158Z,1.40
2023-01-19T09:56:28.660Z,1.50
2023-01-19T09:58:55.778Z,1.60
2023-01-19T10:01:46.765Z,1.50
2023-01-19T10:04:29.290Z,1.50
2023-01-19T10:07:31.179Z,1.50
2023-01-19T10:10:17.431Z,1.50
2023-01-19T10:13:08.320Z,1.30
2023-01-19T10:15:47.312Z,1.30
2023-01-19T10:18:14.804Z,1.30
2023-01-19T10:20:56.722Z,1.40
2023-01-19T10:23:37.754Z,1.30
2023-01-19T10:26:20.884Z,1.30
2023-01-19T10:28:49.504Z,1.30
2023-01-19T10:31:18.808Z,1.30
2023-01-19T10:33:46.376Z,1.20
2023-01-19T10:36:17.909Z,1.10
2023-01-19T10:38:45.710Z,1.20
2023-01-19T10:41:20.133Z,1.20
2023-01-19T10:43:48.159Z,1.20
2023-01-19T10:46:24.107Z,1.10
2023-01-19T10:48:52.972Z,1.20
2023-01-19T10:51:20.489Z,1.10
2023-01-19T10:53:59.077Z,1.10
2023-01-19T10:56:30.880Z,1.00
2023-01-19T10:59:00.179Z,1.00
2023-01-19T11:01:28.609Z,0.90
2023-01-19T11:04:03.729Z,0.80
2023-01-19T11:06:31.598Z,0.90
2023-01-19T11:09:13.119Z,0.80
2023-01-19T11:11:48.382Z,0.80
2023-01-19T11:14:18.226Z,0.80
2023-01-19T11:16:53.682Z,0.90
2023-01-19T11:19:32.048Z,0.80
2023-01-19T11:22:25.243Z,0.80
2023-01-19T11:24:53.025Z,0.90
2023-01-19T11:27:20.892Z,1.00
2023-01-19T11:29:59.460Z,0.90
2023-01-19T11:32:27.006Z,1.00
2023-01-19T11:34:54.408Z,0.90
2023-01-19T11:37:21.530Z,0.90
2023-01-19T11:39:49.654Z,1.00
2023-01-19T11:42:17.174Z,1.00
2023-01-19T11:45:01.565Z,0.90
2023-01-19T11:47:47.392Z,1.00
2023-01-19T11:50:16.493Z,1.00
2023-01-19T11:53:23.497Z,1.00
2023-01-19T11:56:07.544Z,1.10
2023-01-19T11:58:44.772Z,0.80
2023-01-19T12:01:32.231Z,1.00
2023-01-19T12:04:10.767Z,0.90
2023-01-19T12:06:45.165Z,0.90
2023-01-19T12:09:16.063Z,1.00
2023-01-19T12:12:04.423Z,1.10
2023-01-19T12:14:42.148Z,1.00
2023-01-19T12:17:14.690Z,1.00
2023-01-19T12:19:55.340Z,1.00
2023-01-19T12:22:23.073Z,1.10
2023-01-19T12:24:54.712Z,1.00
2023-01-19T12:27:38.271Z,1.00
2023-01-19T12:30:06.357Z,1.00
2023-01-19T12:32:35.561Z,1.10
2023-01-19T12:35:03.389Z,1.10
2023-01-19T12:37:38.866Z,1.10
2023-01-19T12:40:19.991Z,1.00
2023-01-19T12:42:48.499Z,1.00
2023-01-19T12:45:25.573Z,1.10
2023-01-19T12:47:56.075Z,1.20
2023-01-19T12:50:26.321Z,1.20
2023-01-19T12:52:58.834Z,1.10
2023-01-19T12:55:33.693Z,1.20
2023-01-19T12:58:18.045Z,1.30
2023-01-19T13:00:49.671Z,1.20
2023-01-19T13:03:19.990Z,1.10
2023-01-19T13:05:53.035Z,1.10
2023-01-19T13:08:25.499Z,1.00
2023-01-19T13:11:11.122Z,1.00
2023-01-19T13:13:44.548Z,1.00
2023-01-19T13:16:25.564Z,1.10
2023-01-19T13:18:59.749Z,1.10
2023-01-19T13:21:35.492Z,1.00
2023-01-19T13:24:17.031Z,1.20
2023-01-19T13:26:50.777Z,1.00
2023-01-19T13:29:30.524Z,1.00
2023-01-19T13:32:13.042Z,0.90
2023-01-19T13:34:43.028Z,1.10
2023-01-19T13:37:37.705Z,1.10
2023-01-19T13:40:05.935Z,1.00
2023-01-19T13:42:37.997Z,0.90
2023-01-19T13:45:34.551Z,1.00
2023-01-19T13:48:03.266Z,0.90
2023-01-19T13:50:32.151Z,0.90
2023-01-19T13:53:00.056Z,0.80
2023-01-19T13:55:28.485Z,0.70
2023-01-19T13:57:55.681Z,0.70
2023-01-19T14:00:25.311Z,0.70
2023-01-19T14:02:59.065Z,0.90
2023-01-19T14:05:29.210Z,0.70
2023-01-19T14:08:16.159Z,0.80
2023-01-19T14:11:02.680Z,0.80
2023-01-19T14:13:35.045Z,0.80
2023-01-19T14:16:11.263Z,0.70
2023-01-19T14:18:38.764Z,0.80
2023-01-19T14:21:14.123Z,0.90
2023-01-19T14:23:48.186Z,0.80
2023-01-19T14:26:50.192Z,0.70
2023-01-19T14:29:25.068Z,0.70
2023-01-19T14:32:01.660Z,0.80
2023-01-19T14:34:45.522Z,0.70
2023-01-19T14:37:17.186Z,0.70
2023-01-19T14:39:46.622Z,0.60
2023-01-19T14:42:22.761Z,0.70
2023-01-19T14:44:52.067Z,0.60
2023-01-19T14:47:33.251Z,0.60
2023-01-19T14:50:07.896Z,0.50
2023-01-19T14:52:40.614Z,0.50
2023-01-19T14:55:17.949Z,0.60
2023-01-19T14:57:45.528Z,0.60
2023-01-19T15:00:18.503Z,0.60
2023-01-19T15:02:46.796Z,0.70
2023-01-19T15:05:14.600Z,0.70
2023-01-19T15:07:43.485Z,0.60
2023-01-19T15:10:17.830Z,0.60
2023-01-19T15:12:45.747Z,0.60
2023-01-19T15:15:34.992Z,0.60
2023-01-19T15:18:03.207Z,0.60
2023-01-19T15:20:30.514Z,0.50
2023-01-19T15:22:57.977Z,0.60
2023-01-19T15:25:28.490Z,0.60
2023-01-19T15:27:58.521Z,0.60
2023-01-19T15:30:36.384Z,0.60
2023-01-19T15:33:03.823Z,0.70
2023-01-19T15:35:31.297Z,0.70
2023-01-19T15:37:58.700Z,0.50
2023-01-19T15:40:26.199Z,0.50
2023-01-19T15:42:53.963Z,0.50
2023-01-19T15:45:35.836Z,0.50
2023-01-19T15:48:08.179Z,0.60
2023-01-19T15:50:40.174Z,0.60
2023-01-19T15:53:07.824Z,0.50
2023-01-19T15:55:35.175Z,0.50
2023-01-19T15:58:02.661Z,0.40
2023-01-19T16:00:33.205Z,0.40
2023-01-19T16:03:01.865Z,0.40
2023-01-19T16:05:42.062Z,0.50
2023-01-19T16:08:11.587Z,0.40
2023-01-19T16:10:39.423Z,0.40
2023-01-19T16:13:06.949Z,0.40
2023-01-19T16:15:37.347Z,0.40
2023-01-19T16:18:05.375Z,0.50
2023-01-19T16:20:32.727Z,0.50
2023-01-19T16:23:13.884Z,0.50
2023-01-19T16:25:42.594Z,0.40
2023-01-19T16:28:09.973Z,0.50
2023-01-19T16:30:37.341Z,0.50
2023-01-19T16:33:05.733Z,0.50
2023-01-19T16:35:33.468Z,0.50
2023-01-19T16:38:00.900Z,0.50
2023-01-19T16:40:28.413Z,0.60
2023-01-19T16:42:55.844Z,0.50
2023-01-19T16:45:23.292Z,0.30
2023-01-19T16:47:52.584Z,0.30
2023-01-19T16:50:20.194Z,0.40
2023-01-19T16:52:47.606Z,0.30
2023-01-19T16:55:15.227Z,0.20
2023-01-19T16:57:42.836Z,0.30
2023-01-19T17:00:10.963Z,0.30
2023-01-19T17:02:38.693Z,0.30
2023-01-19T17:05:06.787Z,0.40
2023-01-19T17:07:34.185Z,0.40
2023-01-19T17:10:01.654Z,0.40
2023-01-19T17:12:31.372Z,0.30
2023-01-19T17:14:59.591Z,0.30
2023-01-19T17:17:27.080Z,0.30
2023-01-19T17:19:54.464Z,0.30
2023-01-19T17:22:22.092Z,0.30
2023-01-19T17:24:50.267Z,0.40
2023-01-19T17:27:17.996Z,0.30
2023-01-19T17:29:45.484Z,0.20
2023-01-19T17:32:13.028Z,0.20
2023-01-19T17:34:40.955Z,0.20
2023-01-19T17:37:08.385Z,0.20
2023-01-19T17:39:35.829Z,0.30
2023-01-19T17:42:03.274Z,0.20
2023-01-19T17:44:30.784Z,0.30
2023-01-19T17:46:59.939Z,0.20
2023-01-19T17:49:27.676Z,0.30
2023-01-19T17:51:56.380Z,0.20
2023-01-19T17:54:23.748Z,0.30
2023-01-19T17:56:51.434Z,0.30
2023-01-19T17:59:18.883Z,0.20
2023-01-19T18:01:46.846Z,0.20
2023-01-19T18:04:14.319Z,0.10
2023-01-19T18:06:41.857Z,0.10
2023-01-19T18:09:09.240Z,0.20
2023-01-19T18:11:36.714Z,0.00
2023-01-19T18:14:04.344Z,0.00
2023-01-19T18:16:32.840Z,0.00
2023-01-19T18:19:00.254Z,0.00
2023-01-19T18:21:28.633Z,0.10
2023-01-19T18:24:04.241Z,0.10
2023-01-19T18:26:32.219Z,0.00
2023-01-19T18:28:59.812Z,0.10
2023-01-19T18:31:27.696Z,0.00
2023-01-19T18:33:55.150Z,0.00
2023-01-19T18:36:22.922Z,0.10
2023-01-19T18:38:50.345Z,0.10
2023-01-19T18:41:19.400Z,0.20
2023-01-19T18:43:47.182Z,0.10
2023-01-19T18:46:14.917Z,0.10
2023-01-19T18:48:42.547Z,0.00
2023-01-19T18:51:14.005Z,-0.10
2023-01-19T18:53:41.471Z,-0.30
2023-01-19T18:56:09.063Z,-0.40
2023-01-19T18:58:37.900Z,-0.20
2023-01-19T19:01:05.646Z,-0.20
2023-01-19T19:03:33.148Z,-0.20
2023-01-19T19:06:04.074Z,-0.20
2023-01-19T19:08:31.735Z,-0.30
2023-01-19T19:10:58.977Z,-0.40
2023-01-19T19:13:26.346Z,-0.40
2023-01-19T19:15:54.153Z,-0.40
2023-01-19T19:18:21.581Z,-0.50
2023-01-19T19:20:48.992Z,-0.60
2023-01-19T19:23:16.571Z,-0.60
2023-01-19T19:25:43.940Z,-0.60
2023-01-19T19:28:11.352Z,-0.60
2023-01-19T19:30:39.279Z,-0.60
2023-01-19T19:33:08.085Z,-0.60
2023-01-19T19:35:35.674Z,-0.60
2023-01-19T19:38:03.360Z,-0.70
2023-01-19T19:40:30.675Z,-0.70
2023-01-19T19:42:58.925Z,-0.70
2023-01-19T19:45:26.668Z,-0.70
2023-01-19T19:47:54.325Z,-0.80
2023-01-19T19:50:21.697Z,-0.80
2023-01-19T19:52:49.643Z,-0.90
2023-01-19T19:55:17.167Z,-1.00
2023-01-19T19:57:44.548Z,-1.10
2023-01-19T20:00:12.667Z,-1.00
2023-01-19T20:02:40.225Z,-1.00
2023-01-19T20:05:07.988Z,-1.10
2023-01-19T20:07:35.509Z,-1.30
2023-01-19T20:10:02.948Z,-1.30
2023-01-19T20:12:30.267Z,-1.40
2023-01-19T20:14:57.819Z,-1.50
2023-01-19T20:17:25.324Z,-1.40
2023-01-19T20:19:52.693Z,-1.50
2023-01-19T20:22:20.082Z,-1.40
2023-01-19T20:24:47.516Z,-1.50
2023-01-19T20:27:14.854Z,-1.60
2023-01-19T20:29:42.267Z,-1.60
2023-01-19T20:32:11.075Z,-1.50
2023-01-19T20:34:38.814Z,-1.50
2023-01-19T20:37:06.589Z,-1.60
2023-01-19T20:39:35.653Z,-1.60
2023-01-19T20:42:03.146Z,-1.80
2023-01-19T20:44:31.175Z,-2.00
2023-01-19T20:46:58.537Z,-2.00
2023-01-19T20:49:26.162Z,-2.00
2023-01-19T20:51:54.061Z,-2.00
2023-01-19T20:54:23.495Z,-2.00
2023-01-19T20:56:51.182Z,-2.00
2023-01-19T20:59:21.768Z,-2.00
2023-01-19T21:01:49.657Z,-2.20
2023-01-19T21:04:17.904Z,-2.00
2023-01-19T21:06:45.550Z,-2.00
2023-01-19T21:09:12.875Z,-2.00
2023-01-19T21:11:40.795Z,-2.00
2023-01-19T21:14:08.268Z,-2.10
2023-01-19T21:16:35.972Z,-2.10
2023-01-19T21:19:03.833Z,-2.20
2023-01-19T21:21:32.173Z,-2.30
2023-01-19T21:24:00.698Z,-2.30
2023-01-19T21:26:30.213Z,-2.30
2023-01-19T21:28:58.671Z,-2.20
2023-01-19T21:31:27.701Z,-2.10
2023-01-19T21:33:56.118Z,-2.30
2023-01-19T21:36:23.705Z,-2.30
2023-01-19T21:38:52.664Z,-2.40
2023-01-19T21:41:20.202Z,-2.30
2023-01-19T21:43:47.701Z,-2.30
2023-01-19T21:46:29.340Z,-2.20
2023-01-19T21:49:00.232Z,-2.20
2023-01-19T21:51:28.728Z,-2.30
2023-01-19T21:54:00.431Z,-2.10
2023-01-19T21:56:28.657Z,-2.20
2023-01-19T21:58:56.949Z,-2.20
2023-01-19T22:01:24.766Z,-2.00
2023-01-19T22:03:56.032Z,-2.10
2023-01-19T22:06:23.994Z,-2.00
2023-01-19T22:08:51.588Z,-1.80
2023-01-19T22:11:19.947Z,-1.90
2023-01-19T22:13:47.701Z,-1.90
2023-01-19T22:16:17.058Z,-1.80
2023-01-19T22:18:46.297Z,-1.90
2023-01-19T22:21:18.861Z,-1.90
2023-01-19T22:23:49.335Z,-1.80
2023-01-19T22:26:17.067Z,-1.80
2023-01-19T22:29:14.770Z,-1.90
2023-01-19T22:31:43.551Z,-1.80
2023-01-19T22:34:11.397Z,-1.90
2023-01-19T22:36:38.825Z,-1.70
2023-01-19T22:39:10.546Z,-1.70
2023-01-19T22:41:42.639Z,-1.70
2023-01-19T22:44:15.062Z,-1.70
2023-01-19T22:46:42.639Z,-1.80
2023-01-19T22:49:11.479Z,-1.60
2023-01-19T22:51:39.260Z,-1.60
2023-01-19T22:54:06.838Z,-1.60
2023-01-19T22:56:35.219Z,-1.60
2023-01-19T22:59:02.613Z,-1.60
2023-01-19T23:01:38.334Z,-1.70
2023-01-19T23:04:06.239Z,-1.80
2023-01-19T23:06:35.709Z,-1.70
2023-01-19T23:09:05.600Z,-1.60
2023-01-19T23:11:36.024Z,-1.60
2023-01-19T23:14:04.508Z,-1.60
2023-01-19T23:16:31.963Z,-1.60
2023-01-19T23:18:59.668Z,-1.60
2023-01-19T23:21:28.580Z,-1.70
2023-01-19T23:23:58.706Z,-1.60
2023-01-19T23:26:26.445Z,-1.60
2023-01-19T23:28:58.387Z,-1.70
2023-01-19T23:31:27.921Z,-1.60
2023-01-19T23:33:57.125Z,-1.70
2023-01-19T23:36:25.906Z,-1.80
2023-01-19T23:38:55.988Z,-2.00
2023-01-19T23:41:23.911Z,-2.10
2023-01-19T23:43:51.451Z,-2.00
2023-01-19T23:46:19.291Z,-1.90
2023-01-19T23:48:46.676Z,-1.90
2023-01-19T23:51:17.733Z,-1.90
2023-01-19T23:53:45.117Z,-2.10
2023-01-19T23:56:17.947Z,-2.10
2023-01-19T23:58:46.502Z,-2.20
